sensor_id;sensor_type;location;lat;lon;timestamp;P1;durP1;ratioP1;P2;durP2;ratioP2
67597;SDS011;62026;39.230;9.122;2023-06-01T00:02:25;3.45;;;2.80;;
67597;SDS011;62026;39.230;9.122;2023-06-01T00:04:51;8.02;;;2.90;;
67597;SDS011;62026;39.230;9.122;2023-06-01T00:07:17;5.53;;;2.60;;
67597;SDS011;62026;39.230;9.122;2023-06-01T00:09:43;3.92;;;2.45;;
67597;SDS011;62026;39.230;9.122;2023-06-01T00:12:09;6.75;;;2.45;;
67597;SDS011;62026;39.230;9.122;2023-06-01T00:14:35;4.70;;;2.70;;
67597;SDS011;62026;39.230;9.122;2023-06-01T00:17:02;5.35;;;2.97;;
67597;SDS011;62026;39.230;9.122;2023-06-01T00:19:28;7.15;;;2.80;;
67597;SDS011;62026;39.230;9.122;2023-06-01T00:21:54;6.40;;;2.97;;
67597;SDS011;62026;39.230;9.122;2023-06-01T00:24:22;5.70;;;2.58;;
67597;SDS011;62026;39.230;9.122;2023-06-01T00:26:48;5.65;;;2.90;;
67597;SDS011;62026;39.230;9.122;2023-06-01T00:29:15;5.82;;;2.95;;
67597;SDS011;62026;39.230;9.122;2023-06-01T00:31:41;7.28;;;3.20;;
67597;SDS011;62026;39.230;9.122;2023-06-01T00:34:07;4.05;;;2.72;;
67597;SDS011;62026;39.230;9.122;2023-06-01T00:36:34;8.15;;;3.10;;
67597;SDS011;62026;39.230;9.122;2023-06-01T00:39:00;6.85;;;2.50;;
67597;SDS011;62026;39.230;9.122;2023-06-01T00:41:30;6.05;;;3.20;;
67597;SDS011;62026;39.230;9.122;2023-06-01T00:43:58;6.07;;;2.97;;
67597;SDS011;62026;39.230;9.122;2023-06-01T00:46:24;4.68;;;2.75;;
67597;SDS011;62026;39.230;9.122;2023-06-01T00:48:51;4.60;;;2.83;;
67597;SDS011;62026;39.230;9.122;2023-06-01T00:51:18;4.10;;;2.78;;
67597;SDS011;62026;39.230;9.122;2023-06-01T00:53:44;7.15;;;3.47;;
67597;SDS011;62026;39.230;9.122;2023-06-01T00:56:11;7.55;;;3.45;;
67597;SDS011;62026;39.230;9.122;2023-06-01T00:58:38;5.60;;;2.95;;
67597;SDS011;62026;39.230;9.122;2023-06-01T01:01:05;4.82;;;3.17;;
67597;SDS011;62026;39.230;9.122;2023-06-01T01:03:33;5.60;;;2.90;;
67597;SDS011;62026;39.230;9.122;2023-06-01T01:06:12;8.05;;;3.35;;
67597;SDS011;62026;39.230;9.122;2023-06-01T01:11:59;6.43;;;3.38;;
67597;SDS011;62026;39.230;9.122;2023-06-01T01:14:50;5.65;;;3.50;;
67597;SDS011;62026;39.230;9.122;2023-06-01T01:17:28;5.18;;;3.00;;
67597;SDS011;62026;39.230;9.122;2023-06-01T01:23:10;5.20;;;3.35;;
67597;SDS011;62026;39.230;9.122;2023-06-01T01:28:33;6.13;;;3.47;;
67597;SDS011;62026;39.230;9.122;2023-06-01T01:31:09;5.03;;;3.33;;
67597;SDS011;62026;39.230;9.122;2023-06-01T01:33:39;5.55;;;3.25;;
67597;SDS011;62026;39.230;9.122;2023-06-01T01:36:07;6.60;;;3.25;;
67597;SDS011;62026;39.230;9.122;2023-06-01T01:38:35;6.53;;;3.45;;
67597;SDS011;62026;39.230;9.122;2023-06-01T01:41:02;8.40;;;3.78;;
67597;SDS011;62026;39.230;9.122;2023-06-01T01:43:30;7.72;;;4.03;;
67597;SDS011;62026;39.230;9.122;2023-06-01T01:49:05;5.72;;;3.50;;
67597;SDS011;62026;39.230;9.122;2023-06-01T01:51:56;5.22;;;3.20;;
67597;SDS011;62026;39.230;9.122;2023-06-01T01:54:51;6.53;;;3.85;;
67597;SDS011;62026;39.230;9.122;2023-06-01T01:57:18;10.95;;;4.28;;
67597;SDS011;62026;39.230;9.122;2023-06-01T01:59:47;9.25;;;4.13;;
67597;SDS011;62026;39.230;9.122;2023-06-01T02:02:15;6.38;;;4.25;;
67597;SDS011;62026;39.230;9.122;2023-06-01T02:04:41;7.13;;;4.00;;
67597;SDS011;62026;39.230;9.122;2023-06-01T02:07:09;6.05;;;4.28;;
67597;SDS011;62026;39.230;9.122;2023-06-01T02:09:36;6.63;;;4.07;;
67597;SDS011;62026;39.230;9.122;2023-06-01T02:12:03;6.97;;;4.10;;
67597;SDS011;62026;39.230;9.122;2023-06-01T02:14:32;10.25;;;3.92;;
67597;SDS011;62026;39.230;9.122;2023-06-01T02:16:59;7.35;;;4.00;;
67597;SDS011;62026;39.230;9.122;2023-06-01T02:19:28;6.32;;;3.50;;
67597;SDS011;62026;39.230;9.122;2023-06-01T02:21:55;8.10;;;4.07;;
67597;SDS011;62026;39.230;9.122;2023-06-01T02:24:21;7.60;;;3.83;;
67597;SDS011;62026;39.230;9.122;2023-06-01T02:26:47;8.32;;;3.92;;
67597;SDS011;62026;39.230;9.122;2023-06-01T02:29:17;8.45;;;3.95;;
67597;SDS011;62026;39.230;9.122;2023-06-01T02:31:47;6.45;;;3.40;;
67597;SDS011;62026;39.230;9.122;2023-06-01T02:34:16;9.32;;;4.13;;
67597;SDS011;62026;39.230;9.122;2023-06-01T02:36:44;8.93;;;3.35;;
67597;SDS011;62026;39.230;9.122;2023-06-01T02:39:12;7.10;;;3.88;;
67597;SDS011;62026;39.230;9.122;2023-06-01T02:41:39;5.38;;;3.88;;
67597;SDS011;62026;39.230;9.122;2023-06-01T02:44:05;8.73;;;3.22;;
67597;SDS011;62026;39.230;9.122;2023-06-01T02:46:31;8.23;;;3.30;;
67597;SDS011;62026;39.230;9.122;2023-06-01T02:48:57;5.25;;;3.50;;
67597;SDS011;62026;39.230;9.122;2023-06-01T02:51:23;10.45;;;3.53;;
67597;SDS011;62026;39.230;9.122;2023-06-01T02:53:59;6.55;;;3.70;;
67597;SDS011;62026;39.230;9.122;2023-06-01T02:56:25;8.40;;;4.05;;
67597;SDS011;62026;39.230;9.122;2023-06-01T02:59:21;7.70;;;3.90;;
67597;SDS011;62026;39.230;9.122;2023-06-01T03:01:58;7.15;;;3.70;;
67597;SDS011;62026;39.230;9.122;2023-06-01T03:04:24;9.25;;;4.18;;
67597;SDS011;62026;39.230;9.122;2023-06-01T03:06:54;8.13;;;3.40;;
67597;SDS011;62026;39.230;9.122;2023-06-01T03:09:45;7.15;;;3.33;;
67597;SDS011;62026;39.230;9.122;2023-06-01T03:12:30;6.10;;;3.13;;
67597;SDS011;62026;39.230;9.122;2023-06-01T03:14:56;8.00;;;3.30;;
67597;SDS011;62026;39.230;9.122;2023-06-01T03:17:21;7.65;;;4.00;;
67597;SDS011;62026;39.230;9.122;2023-06-01T03:19:47;8.60;;;3.50;;
67597;SDS011;62026;39.230;9.122;2023-06-01T03:22:20;7.15;;;3.22;;
67597;SDS011;62026;39.230;9.122;2023-06-01T03:24:47;6.53;;;3.35;;
67597;SDS011;62026;39.230;9.122;2023-06-01T03:27:18;7.05;;;3.25;;
67597;SDS011;62026;39.230;9.122;2023-06-01T03:29:47;6.93;;;3.53;;
67597;SDS011;62026;39.230;9.122;2023-06-01T03:32:13;6.65;;;3.67;;
67597;SDS011;62026;39.230;9.122;2023-06-01T03:34:39;10.52;;;3.72;;
67597;SDS011;62026;39.230;9.122;2023-06-01T03:37:06;11.90;;;3.72;;
67597;SDS011;62026;39.230;9.122;2023-06-01T03:39:33;7.63;;;3.67;;
67597;SDS011;62026;39.230;9.122;2023-06-01T03:42:02;7.68;;;4.05;;
67597;SDS011;62026;39.230;9.122;2023-06-01T03:44:29;8.25;;;3.90;;
67597;SDS011;62026;39.230;9.122;2023-06-01T03:46:55;7.65;;;3.50;;
67597;SDS011;62026;39.230;9.122;2023-06-01T03:49:21;6.70;;;3.47;;
67597;SDS011;62026;39.230;9.122;2023-06-01T03:51:47;7.88;;;3.42;;
67597;SDS011;62026;39.230;9.122;2023-06-01T03:54:13;9.30;;;3.35;;
67597;SDS011;62026;39.230;9.122;2023-06-01T03:56:39;13.02;;;4.65;;
67597;SDS011;62026;39.230;9.122;2023-06-01T03:59:06;9.02;;;4.13;;
67597;SDS011;62026;39.230;9.122;2023-06-01T04:01:33;6.15;;;3.45;;
67597;SDS011;62026;39.230;9.122;2023-06-01T04:04:04;10.05;;;3.90;;
67597;SDS011;62026;39.230;9.122;2023-06-01T04:06:37;7.25;;;3.90;;
67597;SDS011;62026;39.230;9.122;2023-06-01T04:09:03;8.30;;;3.75;;
67597;SDS011;62026;39.230;9.122;2023-06-01T04:11:33;7.45;;;3.63;;
67597;SDS011;62026;39.230;9.122;2023-06-01T04:13:59;7.43;;;3.92;;
67597;SDS011;62026;39.230;9.122;2023-06-01T04:16:26;11.13;;;4.10;;
67597;SDS011;62026;39.230;9.122;2023-06-01T04:18:52;8.48;;;3.60;;
67597;SDS011;62026;39.230;9.122;2023-06-01T04:21:22;5.13;;;3.50;;
67597;SDS011;62026;39.230;9.122;2023-06-01T04:23:49;9.77;;;3.83;;
67597;SDS011;62026;39.230;9.122;2023-06-01T04:26:16;6.95;;;3.85;;
67597;SDS011;62026;39.230;9.122;2023-06-01T04:28:44;6.18;;;3.92;;
67597;SDS011;62026;39.230;9.122;2023-06-01T04:31:11;5.88;;;3.65;;
67597;SDS011;62026;39.230;9.122;2023-06-01T04:33:46;9.23;;;4.07;;
67597;SDS011;62026;39.230;9.122;2023-06-01T04:36:19;9.48;;;5.07;;
67597;SDS011;62026;39.230;9.122;2023-06-01T04:38:48;8.55;;;4.25;;
67597;SDS011;62026;39.230;9.122;2023-06-01T04:41:23;7.30;;;4.43;;
67597;SDS011;62026;39.230;9.122;2023-06-01T04:43:54;7.17;;;4.17;;
67597;SDS011;62026;39.230;9.122;2023-06-01T04:46:22;7.18;;;4.00;;
67597;SDS011;62026;39.230;9.122;2023-06-01T04:48:53;8.02;;;3.90;;
67597;SDS011;62026;39.230;9.122;2023-06-01T04:51:25;10.73;;;4.60;;
67597;SDS011;62026;39.230;9.122;2023-06-01T04:53:52;8.52;;;4.10;;
67597;SDS011;62026;39.230;9.122;2023-06-01T04:56:20;12.23;;;4.15;;
67597;SDS011;62026;39.230;9.122;2023-06-01T04:58:57;9.07;;;4.47;;
67597;SDS011;62026;39.230;9.122;2023-06-01T05:01:26;12.13;;;4.43;;
67597;SDS011;62026;39.230;9.122;2023-06-01T05:03:55;9.10;;;3.78;;
67597;SDS011;62026;39.230;9.122;2023-06-01T05:06:22;6.78;;;3.30;;
67597;SDS011;62026;39.230;9.122;2023-06-01T05:08:50;8.75;;;3.63;;
67597;SDS011;62026;39.230;9.122;2023-06-01T05:11:17;8.07;;;3.67;;
67597;SDS011;62026;39.230;9.122;2023-06-01T05:13:43;5.22;;;3.80;;
67597;SDS011;62026;39.230;9.122;2023-06-01T05:16:09;8.65;;;3.50;;
67597;SDS011;62026;39.230;9.122;2023-06-01T05:18:35;6.18;;;3.88;;
67597;SDS011;62026;39.230;9.122;2023-06-01T05:21:02;5.15;;;3.30;;
67597;SDS011;62026;39.230;9.122;2023-06-01T05:23:28;7.70;;;3.67;;
67597;SDS011;62026;39.230;9.122;2023-06-01T05:25:55;7.50;;;3.20;;
67597;SDS011;62026;39.230;9.122;2023-06-01T05:28:31;8.95;;;3.22;;
67597;SDS011;62026;39.230;9.122;2023-06-01T05:30:59;10.07;;;3.88;;
67597;SDS011;62026;39.230;9.122;2023-06-01T05:33:26;6.93;;;4.20;;
67597;SDS011;62026;39.230;9.122;2023-06-01T05:35:52;9.25;;;4.50;;
67597;SDS011;62026;39.230;9.122;2023-06-01T05:38:22;7.38;;;3.60;;
67597;SDS011;62026;39.230;9.122;2023-06-01T05:40:48;8.40;;;3.65;;
67597;SDS011;62026;39.230;9.122;2023-06-01T05:43:14;11.43;;;3.92;;
67597;SDS011;62026;39.230;9.122;2023-06-01T05:45:41;10.10;;;3.85;;
67597;SDS011;62026;39.230;9.122;2023-06-01T05:48:07;10.50;;;3.75;;
67597;SDS011;62026;39.230;9.122;2023-06-01T05:50:33;13.32;;;3.97;;
67597;SDS011;62026;39.230;9.122;2023-06-01T05:52:59;7.13;;;3.28;;
67597;SDS011;62026;39.230;9.122;2023-06-01T05:55:25;7.75;;;3.65;;
67597;SDS011;62026;39.230;9.122;2023-06-01T05:57:51;7.13;;;3.80;;
67597;SDS011;62026;39.230;9.122;2023-06-01T06:00:17;8.48;;;3.22;;
67597;SDS011;62026;39.230;9.122;2023-06-01T06:02:45;6.50;;;2.97;;
67597;SDS011;62026;39.230;9.122;2023-06-01T06:05:11;7.75;;;2.70;;
67597;SDS011;62026;39.230;9.122;2023-06-01T06:07:37;8.70;;;3.03;;
67597;SDS011;62026;39.230;9.122;2023-06-01T06:10:04;4.25;;;2.50;;
67597;SDS011;62026;39.230;9.122;2023-06-01T06:12:30;6.13;;;2.80;;
67597;SDS011;62026;39.230;9.122;2023-06-01T06:14:56;8.57;;;2.65;;
67597;SDS011;62026;39.230;9.122;2023-06-01T06:17:22;8.50;;;2.58;;
67597;SDS011;62026;39.230;9.122;2023-06-01T06:19:48;5.45;;;3.35;;
67597;SDS011;62026;39.230;9.122;2023-06-01T06:22:15;8.05;;;2.80;;
67597;SDS011;62026;39.230;9.122;2023-06-01T06:24:41;6.70;;;2.75;;
67597;SDS011;62026;39.230;9.122;2023-06-01T06:27:10;9.55;;;3.20;;
67597;SDS011;62026;39.230;9.122;2023-06-01T06:29:36;6.68;;;2.90;;
67597;SDS011;62026;39.230;9.122;2023-06-01T06:32:02;5.00;;;2.50;;
67597;SDS011;62026;39.230;9.122;2023-06-01T06:34:29;5.55;;;2.10;;
67597;SDS011;62026;39.230;9.122;2023-06-01T06:37:01;6.53;;;2.78;;
67597;SDS011;62026;39.230;9.122;2023-06-01T06:39:32;6.03;;;2.47;;
67597;SDS011;62026;39.230;9.122;2023-06-01T06:41:59;6.85;;;2.38;;
67597;SDS011;62026;39.230;9.122;2023-06-01T06:44:28;5.15;;;2.08;;
67597;SDS011;62026;39.230;9.122;2023-06-01T06:46:54;4.03;;;1.90;;
67597;SDS011;62026;39.230;9.122;2023-06-01T06:49:23;6.85;;;2.55;;
67597;SDS011;62026;39.230;9.122;2023-06-01T06:51:49;4.45;;;2.15;;
67597;SDS011;62026;39.230;9.122;2023-06-01T06:54:15;5.45;;;1.95;;
67597;SDS011;62026;39.230;9.122;2023-06-01T06:56:41;8.73;;;2.10;;
67597;SDS011;62026;39.230;9.122;2023-06-01T06:59:08;9.57;;;1.88;;
67597;SDS011;62026;39.230;9.122;2023-06-01T07:01:34;4.45;;;1.80;;
67597;SDS011;62026;39.230;9.122;2023-06-01T07:04:06;7.85;;;1.83;;
67597;SDS011;62026;39.230;9.122;2023-06-01T07:06:32;5.55;;;2.25;;
67597;SDS011;62026;39.230;9.122;2023-06-01T07:08:59;4.95;;;1.80;;
67597;SDS011;62026;39.230;9.122;2023-06-01T07:11:25;7.82;;;2.00;;
67597;SDS011;62026;39.230;9.122;2023-06-01T07:13:53;7.18;;;2.05;;
67597;SDS011;62026;39.230;9.122;2023-06-01T07:16:22;4.55;;;1.90;;
67597;SDS011;62026;39.230;9.122;2023-06-01T07:18:50;5.93;;;1.75;;
67597;SDS011;62026;39.230;9.122;2023-06-01T07:21:17;5.70;;;1.70;;
67597;SDS011;62026;39.230;9.122;2023-06-01T07:23:44;6.50;;;1.50;;
67597;SDS011;62026;39.230;9.122;2023-06-01T07:26:11;6.20;;;2.33;;
67597;SDS011;62026;39.230;9.122;2023-06-01T07:28:37;3.17;;;1.60;;
67597;SDS011;62026;39.230;9.122;2023-06-01T07:31:04;5.70;;;1.92;;
67597;SDS011;62026;39.230;9.122;2023-06-01T07:33:30;4.80;;;1.77;;
67597;SDS011;62026;39.230;9.122;2023-06-01T07:35:58;5.50;;;1.50;;
67597;SDS011;62026;39.230;9.122;2023-06-01T07:38:24;3.17;;;1.20;;
67597;SDS011;62026;39.230;9.122;2023-06-01T07:40:51;7.28;;;1.50;;
67597;SDS011;62026;39.230;9.122;2023-06-01T07:43:17;7.88;;;1.60;;
67597;SDS011;62026;39.230;9.122;2023-06-01T07:45:43;6.20;;;1.30;;
67597;SDS011;62026;39.230;9.122;2023-06-01T07:48:09;6.00;;;1.50;;
67597;SDS011;62026;39.230;9.122;2023-06-01T07:50:35;7.82;;;1.60;;
67597;SDS011;62026;39.230;9.122;2023-06-01T07:53:02;4.75;;;1.70;;
67597;SDS011;62026;39.230;9.122;2023-06-01T07:55:28;7.15;;;1.67;;
67597;SDS011;62026;39.230;9.122;2023-06-01T07:57:54;4.07;;;1.67;;
67597;SDS011;62026;39.230;9.122;2023-06-01T08:00:20;6.30;;;2.10;;
67597;SDS011;62026;39.230;9.122;2023-06-01T08:02:47;4.85;;;1.95;;
67597;SDS011;62026;39.230;9.122;2023-06-01T08:05:13;6.43;;;1.52;;
67597;SDS011;62026;39.230;9.122;2023-06-01T08:07:43;5.78;;;1.70;;
67597;SDS011;62026;39.230;9.122;2023-06-01T08:10:11;3.63;;;1.63;;
67597;SDS011;62026;39.230;9.122;2023-06-01T08:12:39;7.70;;;1.70;;
67597;SDS011;62026;39.230;9.122;2023-06-01T08:15:07;5.20;;;1.38;;
67597;SDS011;62026;39.230;9.122;2023-06-01T08:17:36;3.53;;;1.60;;
67597;SDS011;62026;39.230;9.122;2023-06-01T08:20:03;8.65;;;2.00;;
67597;SDS011;62026;39.230;9.122;2023-06-01T08:22:36;2.22;;;1.20;;
67597;SDS011;62026;39.230;9.122;2023-06-01T08:25:03;2.58;;;1.48;;
67597;SDS011;62026;39.230;9.122;2023-06-01T08:27:30;5.15;;;2.33;;
67597;SDS011;62026;39.230;9.122;2023-06-01T08:29:56;7.28;;;1.83;;
67597;SDS011;62026;39.230;9.122;2023-06-01T08:32:23;6.22;;;1.67;;
67597;SDS011;62026;39.230;9.122;2023-06-01T08:34:49;5.07;;;1.60;;
67597;SDS011;62026;39.230;9.122;2023-06-01T08:37:16;4.55;;;1.65;;
67597;SDS011;62026;39.230;9.122;2023-06-01T08:39:42;6.55;;;1.85;;
67597;SDS011;62026;39.230;9.122;2023-06-01T08:44:39;5.90;;;2.17;;
67597;SDS011;62026;39.230;9.122;2023-06-01T08:47:06;4.93;;;2.17;;
67597;SDS011;62026;39.230;9.122;2023-06-01T08:49:34;7.72;;;2.10;;
67597;SDS011;62026;39.230;9.122;2023-06-01T08:52:02;5.10;;;1.80;;
67597;SDS011;62026;39.230;9.122;2023-06-01T08:54:36;6.65;;;1.80;;
67597;SDS011;62026;39.230;9.122;2023-06-01T08:57:04;6.75;;;1.80;;
67597;SDS011;62026;39.230;9.122;2023-06-01T08:59:33;5.35;;;1.70;;
67597;SDS011;62026;39.230;9.122;2023-06-01T09:02:01;6.28;;;2.00;;
67597;SDS011;62026;39.230;9.122;2023-06-01T09:04:28;3.42;;;1.50;;
67597;SDS011;62026;39.230;9.122;2023-06-01T09:06:59;3.78;;;1.63;;
67597;SDS011;62026;39.230;9.122;2023-06-01T09:09:25;7.03;;;1.95;;
67597;SDS011;62026;39.230;9.122;2023-06-01T09:14:49;5.97;;;1.85;;
67597;SDS011;62026;39.230;9.122;2023-06-01T09:17:22;6.38;;;1.63;;
67597;SDS011;62026;39.230;9.122;2023-06-01T09:19:53;5.32;;;1.83;;
67597;SDS011;62026;39.230;9.122;2023-06-01T09:22:23;3.70;;;1.48;;
67597;SDS011;62026;39.230;9.122;2023-06-01T09:24:58;4.65;;;1.73;;
67597;SDS011;62026;39.230;9.122;2023-06-01T09:27:25;6.55;;;1.90;;
67597;SDS011;62026;39.230;9.122;2023-06-01T09:29:53;3.88;;;1.90;;
67597;SDS011;62026;39.230;9.122;2023-06-01T09:32:19;5.35;;;1.70;;
67597;SDS011;62026;39.230;9.122;2023-06-01T09:34:49;6.57;;;1.80;;
67597;SDS011;62026;39.230;9.122;2023-06-01T09:37:15;8.73;;;2.30;;
67597;SDS011;62026;39.230;9.122;2023-06-01T09:39:42;5.70;;;1.98;;
67597;SDS011;62026;39.230;9.122;2023-06-01T09:42:08;8.10;;;2.03;;
67597;SDS011;62026;39.230;9.122;2023-06-01T09:44:35;5.38;;;2.10;;
67597;SDS011;62026;39.230;9.122;2023-06-01T09:47:05;5.97;;;1.90;;
67597;SDS011;62026;39.230;9.122;2023-06-01T09:49:39;6.53;;;2.28;;
67597;SDS011;62026;39.230;9.122;2023-06-01T09:52:15;4.00;;;1.88;;
67597;SDS011;62026;39.230;9.122;2023-06-01T09:54:46;5.60;;;2.10;;
67597;SDS011;62026;39.230;9.122;2023-06-01T09:57:26;6.18;;;1.90;;
67597;SDS011;62026;39.230;9.122;2023-06-01T09:59:54;7.25;;;2.15;;
67597;SDS011;62026;39.230;9.122;2023-06-01T10:02:21;5.50;;;1.92;;
67597;SDS011;62026;39.230;9.122;2023-06-01T10:04:53;9.88;;;1.88;;
67597;SDS011;62026;39.230;9.122;2023-06-01T10:07:27;5.13;;;1.80;;
67597;SDS011;62026;39.230;9.122;2023-06-01T10:09:56;3.92;;;1.70;;
67597;SDS011;62026;39.230;9.122;2023-06-01T10:12:27;6.47;;;2.33;;
67597;SDS011;62026;39.230;9.122;2023-06-01T10:14:54;8.23;;;2.20;;
67597;SDS011;62026;39.230;9.122;2023-06-01T10:17:22;4.18;;;1.90;;
67597;SDS011;62026;39.230;9.122;2023-06-01T10:19:48;5.15;;;2.20;;
67597;SDS011;62026;39.230;9.122;2023-06-01T10:22:14;6.07;;;1.90;;
67597;SDS011;62026;39.230;9.122;2023-06-01T10:24:41;7.50;;;2.03;;
67597;SDS011;62026;39.230;9.122;2023-06-01T10:27:16;6.45;;;2.08;;
67597;SDS011;62026;39.230;9.122;2023-06-01T10:35:06;9.63;;;2.00;;
67597;SDS011;62026;39.230;9.122;2023-06-01T10:37:35;6.95;;;2.30;;
67597;SDS011;62026;39.230;9.122;2023-06-01T10:42:46;5.90;;;2.03;;
67597;SDS011;62026;39.230;9.122;2023-06-01T10:48:10;8.43;;;2.30;;
67597;SDS011;62026;39.230;9.122;2023-06-01T10:50:38;5.50;;;1.88;;
67597;SDS011;62026;39.230;9.122;2023-06-01T11:01:38;4.07;;;1.63;;
67597;SDS011;62026;39.230;9.122;2023-06-01T11:04:11;5.28;;;2.17;;
67597;SDS011;62026;39.230;9.122;2023-06-01T11:06:39;7.13;;;1.80;;
67597;SDS011;62026;39.230;9.122;2023-06-01T11:09:08;3.63;;;2.00;;
67597;SDS011;62026;39.230;9.122;2023-06-01T11:14:14;4.70;;;1.73;;
67597;SDS011;62026;39.230;9.122;2023-06-01T11:16:41;7.50;;;2.08;;
67597;SDS011;62026;39.230;9.122;2023-06-01T11:19:07;7.13;;;2.00;;
67597;SDS011;62026;39.230;9.122;2023-06-01T11:24:17;7.18;;;2.15;;
67597;SDS011;62026;39.230;9.122;2023-06-01T11:26:44;4.30;;;2.03;;
67597;SDS011;62026;39.230;9.122;2023-06-01T11:34:11;6.78;;;2.15;;
67597;SDS011;62026;39.230;9.122;2023-06-01T11:36:44;3.95;;;1.88;;
67597;SDS011;62026;39.230;9.122;2023-06-01T11:39:20;8.07;;;2.28;;
67597;SDS011;62026;39.230;9.122;2023-06-01T11:41:51;4.55;;;2.00;;
67597;SDS011;62026;39.230;9.122;2023-06-01T11:44:32;8.97;;;2.23;;
67597;SDS011;62026;39.230;9.122;2023-06-01T11:47:04;6.13;;;2.00;;
67597;SDS011;62026;39.230;9.122;2023-06-01T11:49:48;3.92;;;1.73;;
67597;SDS011;62026;39.230;9.122;2023-06-01T11:52:18;4.72;;;1.90;;
67597;SDS011;62026;39.230;9.122;2023-06-01T11:54:46;4.05;;;1.70;;
67597;SDS011;62026;39.230;9.122;2023-06-01T11:57:13;4.93;;;1.73;;
67597;SDS011;62026;39.230;9.122;2023-06-01T11:59:42;5.35;;;1.85;;
67597;SDS011;62026;39.230;9.122;2023-06-01T12:02:27;9.50;;;1.97;;
67597;SDS011;62026;39.230;9.122;2023-06-01T12:04:55;6.70;;;2.00;;
67597;SDS011;62026;39.230;9.122;2023-06-01T12:07:48;5.95;;;1.63;;
67597;SDS011;62026;39.230;9.122;2023-06-01T12:10:16;4.60;;;1.60;;
67597;SDS011;62026;39.230;9.122;2023-06-01T12:12:44;8.05;;;1.90;;
67597;SDS011;62026;39.230;9.122;2023-06-01T12:15:15;4.78;;;2.20;;
67597;SDS011;62026;39.230;9.122;2023-06-01T12:17:53;4.80;;;1.65;;
67597;SDS011;62026;39.230;9.122;2023-06-01T12:20:41;4.40;;;1.48;;
67597;SDS011;62026;39.230;9.122;2023-06-01T12:25:48;4.60;;;1.73;;
67597;SDS011;62026;39.230;9.122;2023-06-01T12:28:24;5.03;;;1.98;;
67597;SDS011;62026;39.230;9.122;2023-06-01T12:31:13;5.28;;;2.05;;
67597;SDS011;62026;39.230;9.122;2023-06-01T12:33:41;6.50;;;1.98;;
67597;SDS011;62026;39.230;9.122;2023-06-01T12:36:27;4.75;;;1.70;;
67597;SDS011;62026;39.230;9.122;2023-06-01T12:38:57;5.47;;;1.90;;
67597;SDS011;62026;39.230;9.122;2023-06-01T12:41:24;5.60;;;1.77;;
67597;SDS011;62026;39.230;9.122;2023-06-01T12:43:51;5.60;;;1.92;;
67597;SDS011;62026;39.230;9.122;2023-06-01T12:46:21;6.45;;;2.00;;
67597;SDS011;62026;39.230;9.122;2023-06-01T12:48:52;5.67;;;2.20;;
67597;SDS011;62026;39.230;9.122;2023-06-01T12:51:36;7.82;;;1.92;;
67597;SDS011;62026;39.230;9.122;2023-06-01T12:54:02;6.13;;;2.03;;
67597;SDS011;62026;39.230;9.122;2023-06-01T12:56:28;5.63;;;1.92;;
67597;SDS011;62026;39.230;9.122;2023-06-01T12:58:55;5.85;;;1.80;;
67597;SDS011;62026;39.230;9.122;2023-06-01T13:01:21;7.00;;;2.05;;
67597;SDS011;62026;39.230;9.122;2023-06-01T13:03:47;5.57;;;1.80;;
67597;SDS011;62026;39.230;9.122;2023-06-01T13:06:16;5.15;;;1.80;;
67597;SDS011;62026;39.230;9.122;2023-06-01T13:08:42;5.40;;;1.70;;
67597;SDS011;62026;39.230;9.122;2023-06-01T13:11:08;6.00;;;1.70;;
67597;SDS011;62026;39.230;9.122;2023-06-01T13:13:34;9.20;;;2.20;;
67597;SDS011;62026;39.230;9.122;2023-06-01T13:16:01;6.10;;;1.80;;
67597;SDS011;62026;39.230;9.122;2023-06-01T13:18:27;8.98;;;2.08;;
67597;SDS011;62026;39.230;9.122;2023-06-01T13:20:54;5.85;;;2.00;;
67597;SDS011;62026;39.230;9.122;2023-06-01T13:23:21;8.35;;;2.00;;
67597;SDS011;62026;39.230;9.122;2023-06-01T13:25:47;5.53;;;2.10;;
67597;SDS011;62026;39.230;9.122;2023-06-01T13:28:13;9.35;;;2.28;;
67597;SDS011;62026;39.230;9.122;2023-06-01T13:30:40;6.68;;;2.05;;
67597;SDS011;62026;39.230;9.122;2023-06-01T13:33:07;5.03;;;1.83;;
67597;SDS011;62026;39.230;9.122;2023-06-01T13:35:33;4.57;;;1.80;;
67597;SDS011;62026;39.230;9.122;2023-06-01T13:38:00;6.82;;;2.25;;
67597;SDS011;62026;39.230;9.122;2023-06-01T13:40:26;9.55;;;1.80;;
67597;SDS011;62026;39.230;9.122;2023-06-01T13:42:53;6.53;;;1.88;;
67597;SDS011;62026;39.230;9.122;2023-06-01T13:45:19;6.15;;;2.17;;
67597;SDS011;62026;39.230;9.122;2023-06-01T13:47:46;6.10;;;1.80;;
67597;SDS011;62026;39.230;9.122;2023-06-01T13:50:14;6.65;;;2.20;;
67597;SDS011;62026;39.230;9.122;2023-06-01T13:52:40;5.78;;;1.85;;
67597;SDS011;62026;39.230;9.122;2023-06-01T13:55:07;5.47;;;1.83;;
67597;SDS011;62026;39.230;9.122;2023-06-01T13:57:35;7.72;;;2.13;;
67597;SDS011;62026;39.230;9.122;2023-06-01T14:00:02;11.05;;;2.22;;
67597;SDS011;62026;39.230;9.122;2023-06-01T14:02:31;11.88;;;2.13;;
67597;SDS011;62026;39.230;9.122;2023-06-01T14:04:57;8.10;;;2.17;;
67597;SDS011;62026;39.230;9.122;2023-06-01T14:07:23;2.90;;;1.42;;
67597;SDS011;62026;39.230;9.122;2023-06-01T14:09:50;5.70;;;1.88;;
67597;SDS011;62026;39.230;9.122;2023-06-01T14:12:16;6.70;;;2.08;;
67597;SDS011;62026;39.230;9.122;2023-06-01T14:14:42;6.30;;;2.72;;
67597;SDS011;62026;39.230;9.122;2023-06-01T14:17:07;4.38;;;1.63;;
67597;SDS011;62026;39.230;9.122;2023-06-01T14:19:33;5.57;;;2.08;;
67597;SDS011;62026;39.230;9.122;2023-06-01T14:21:59;5.00;;;2.05;;
67597;SDS011;62026;39.230;9.122;2023-06-01T14:24:25;6.72;;;2.40;;
67597;SDS011;62026;39.230;9.122;2023-06-01T14:26:51;6.22;;;2.00;;
67597;SDS011;62026;39.230;9.122;2023-06-01T14:29:17;7.22;;;2.00;;
67597;SDS011;62026;39.230;9.122;2023-06-01T14:31:43;5.93;;;2.35;;
67597;SDS011;62026;39.230;9.122;2023-06-01T14:34:09;6.53;;;1.98;;
67597;SDS011;62026;39.230;9.122;2023-06-01T14:36:35;5.25;;;1.80;;
67597;SDS011;62026;39.230;9.122;2023-06-01T14:39:02;6.20;;;2.20;;
67597;SDS011;62026;39.230;9.122;2023-06-01T14:41:28;6.60;;;1.90;;
67597;SDS011;62026;39.230;9.122;2023-06-01T14:43:54;6.32;;;1.58;;
67597;SDS011;62026;39.230;9.122;2023-06-01T14:46:20;6.85;;;2.08;;
67597;SDS011;62026;39.230;9.122;2023-06-01T14:48:46;6.72;;;1.83;;
67597;SDS011;62026;39.230;9.122;2023-06-01T14:51:12;5.80;;;2.15;;
67597;SDS011;62026;39.230;9.122;2023-06-01T14:53:38;4.60;;;1.85;;
67597;SDS011;62026;39.230;9.122;2023-06-01T14:56:05;5.50;;;1.60;;
67597;SDS011;62026;39.230;9.122;2023-06-01T14:58:31;6.60;;;2.10;;
67597;SDS011;62026;39.230;9.122;2023-06-01T15:00:57;7.07;;;1.85;;
67597;SDS011;62026;39.230;9.122;2023-06-01T15:03:24;7.35;;;2.70;;
67597;SDS011;62026;39.230;9.122;2023-06-01T15:05:50;6.38;;;2.15;;
67597;SDS011;62026;39.230;9.122;2023-06-01T15:08:16;7.90;;;2.15;;
67597;SDS011;62026;39.230;9.122;2023-06-01T15:10:46;6.15;;;2.08;;
67597;SDS011;62026;39.230;9.122;2023-06-01T15:13:12;5.47;;;1.77;;
67597;SDS011;62026;39.230;9.122;2023-06-01T15:15:39;7.63;;;2.83;;
67597;SDS011;62026;39.230;9.122;2023-06-01T15:18:06;6.88;;;1.85;;
67597;SDS011;62026;39.230;9.122;2023-06-01T15:20:32;6.38;;;1.98;;
67597;SDS011;62026;39.230;9.122;2023-06-01T15:22:59;6.47;;;2.00;;
67597;SDS011;62026;39.230;9.122;2023-06-01T15:25:25;5.40;;;2.08;;
67597;SDS011;62026;39.230;9.122;2023-06-01T15:27:51;7.03;;;1.95;;
67597;SDS011;62026;39.230;9.122;2023-06-01T15:30:17;5.15;;;1.80;;
67597;SDS011;62026;39.230;9.122;2023-06-01T15:32:43;6.03;;;2.22;;
67597;SDS011;62026;39.230;9.122;2023-06-01T15:35:09;8.25;;;1.80;;
67597;SDS011;62026;39.230;9.122;2023-06-01T15:37:35;5.68;;;1.70;;
67597;SDS011;62026;39.230;9.122;2023-06-01T15:40:02;4.45;;;1.80;;
67597;SDS011;62026;39.230;9.122;2023-06-01T15:42:37;5.18;;;2.30;;
67597;SDS011;62026;39.230;9.122;2023-06-01T15:45:05;6.47;;;2.30;;
67597;SDS011;62026;39.230;9.122;2023-06-01T15:47:32;7.80;;;1.88;;